Time;durP1;ratioP1;P1;durP2;ratioP2;P2;SDS_P1;SDS_P2;PMS_P1;PMS_P2;Temp;Humidity;BMP_temperature;BMP_pressure;BME280_temperature;BME280_humidity;BME280_pressure;Samples;Min_cycle;Max_cycle;Signal;HPM_P1;HPM_P2
2023/01/07 00:01:11;;;;;;;74.03;21.15;;;10.00;99.90;;;;;;5072280;28;20056;-74
2023/01/07 00:03:38;;;;;;;74.43;22.50;;;10.00;99.90;;;;;;5074468;28;20147;-73
2023/01/07 00:06:06;;;;;;;78.47;22.67;;;10.00;99.90;;;;;;5074082;28;20056;-74
2023/01/07 00:08:35;;;;;;;82.07;22.45;;;10.00;99.90;;;;;;5073394;28;20048;-73
2023/01/07 00:11:09;;;;;;;79.03;22.23;;;10.00;99.90;;;;;;5072196;28;20045;-72
2023/01/07 00:13:35;;;;;;;92.85;24.88;;;10.00;99.90;;;;;;5072787;28;20110;-73
2023/01/07 00:16:06;;;;;;;89.57;23.95;;;10.10;99.90;;;;;;5089244;28;20367;-74
2023/01/07 00:18:33;;;;;;;83.68;22.83;;;10.10;99.90;;;;;;5073070;28;20063;-73
2023/01/07 00:21:00;;;;;;;85.80;24.38;;;10.10;99.90;;;;;;5072510;28;20047;-73
2023/01/07 00:23:27;;;;;;;83.82;23.35;;;10.10;99.90;;;;;;5072148;28;20129;-73
2023/01/07 00:26:19;;;;;;;79.75;23.30;;;10.10;99.90;;;;;;5039166;28;20052;-74
2023/01/07 00:28:47;;;;;;;86.00;23.63;;;10.10;99.90;;;;;;5073872;28;20048;-74
2023/01/07 00:31:18;;;;;;;77.85;21.20;;;10.20;99.90;;;;;;5073769;28;20434;-73
2023/01/07 00:33:50;;;;;;;80.45;24.30;;;10.20;99.90;;;;;;5073518;28;20393;-74
2023/01/07 00:36:17;;;;;;;85.78;25.10;;;10.20;99.90;;;;;;5073202;28;20090;-74
2023/01/07 00:38:43;;;;;;;;;;;10.30;99.90;;;;;;5073201;28;20059;-74
2023/01/07 00:41:09;;;;;;;79.20;22.23;;;10.20;99.90;;;;;;5073242;28;19920;-73
2023/01/07 00:43:35;;;;;;;87.88;25.40;;;10.20;99.90;;;;;;5073591;28;20044;-74
2023/01/07 00:46:01;;;;;;;92.55;25.58;;;10.20;99.90;;;;;;5055205;28;20056;-75
2023/01/07 00:48:27;;;;;;;92.65;26.48;;;10.30;99.90;;;;;;5073007;28;20044;-73
2023/01/07 00:50:53;;;;;;;92.65;26.80;;;10.30;99.90;;;;;;5055174;28;20427;-73
2023/01/07 00:53:20;;;;;;;92.35;27.45;;;10.30;99.90;;;;;;5072977;28;20052;-73
2023/01/07 00:55:50;;;;;;;87.50;25.98;;;10.30;99.90;;;;;;5076217;28;20044;-74
2023/01/07 00:58:23;;;;;;;97.38;28.65;;;10.30;99.90;;;;;;5077178;28;20135;-73
2023/01/07 01:00:52;;;;;;;97.82;26.83;;;10.30;99.90;;;;;;5075909;28;20056;-73
2023/01/07 01:03:18;;;;;;;97.43;27.98;;;10.30;99.90;;;;;;5077085;28;20055;-73
2023/01/07 01:05:44;;;;;;;90.20;25.20;;;10.30;99.90;;;;;;5077130;28;20400;-73
2023/01/07 01:08:09;;;;;;;93.38;27.80;;;10.30;99.90;;;;;;5075730;28;20044;-74
2023/01/07 01:10:35;;;;;;;88.68;25.63;;;10.30;99.90;;;;;;5075764;28;20040;-73
2023/01/07 01:13:01;;;;;;;86.95;26.35;;;10.30;99.90;;;;;;5076848;28;20087;-74
2023/01/07 01:15:27;;;;;;;89.15;26.00;;;10.40;99.90;;;;;;5059034;28;20053;-73
2023/01/07 01:17:52;;;;;;;96.32;29.20;;;10.40;99.90;;;;;;5076631;28;20041;-73
2023/01/07 01:20:19;;;;;;;93.88;28.15;;;10.40;99.90;;;;;;5076595;28;20044;-74
2023/01/07 01:22:45;;;;;;;91.03;28.20;;;10.40;99.90;;;;;;5058896;28;20040;-73
2023/01/07 01:25:11;;;;;;;86.57;26.58;;;10.40;99.90;;;;;;5059088;28;20048;-73
2023/01/07 01:27:37;;;;;;;82.63;25.87;;;10.40;99.90;;;;;;5075296;28;20067;-72
2023/01/07 01:30:05;;;;;;;91.38;24.80;;;10.40;99.90;;;;;;5076283;28;20048;-74
2023/01/07 01:32:31;;;;;;;89.68;26.50;;;10.40;99.90;;;;;;5076341;28;20052;-73
2023/01/07 01:34:56;;;;;;;83.53;24.27;;;10.30;99.90;;;;;;5075603;28;20048;-73
2023/01/07 01:37:23;;;;;;;78.95;23.80;;;10.30;99.90;;;;;;5075986;28;20046;-75
2023/01/07 01:39:48;;;;;;;78.07;24.23;;;10.40;99.90;;;;;;5076986;28;20047;-73
2023/01/07 01:42:21;;;;;;;78.65;25.70;;;10.40;99.90;;;;;;5076813;28;20540;-72
2023/01/07 01:45:00;;;;;;;77.13;25.70;;;10.40;99.90;;;;;;5076735;28;20048;-74
2023/01/07 01:47:32;;;;;;;73.55;20.08;;;10.40;99.90;;;;;;5074917;28;20040;-72
2023/01/07 01:50:09;;;;;;;78.68;24.60;;;10.40;99.90;;;;;;5075312;28;20045;-72
2023/01/07 01:52:45;;;;;;;80.20;25.13;;;10.40;99.90;;;;;;5076092;28;20049;-72
2023/01/07 01:55:14;;;;;;;87.65;25.70;;;10.40;99.90;;;;;;5075499;28;20526;-74
2023/01/07 01:57:40;;;;;;;84.45;24.95;;;10.40;99.90;;;;;;5075890;28;20131;-79
2023/01/07 02:00:08;;;;;;;82.32;25.58;;;10.40;99.90;;;;;;5075183;28;20064;-79
2023/01/07 02:02:44;;;;;;;91.10;28.08;;;10.40;99.90;;;;;;5073851;28;20052;-79
2023/01/07 02:05:09;;;;;;;79.63;25.42;;;10.40;99.90;;;;;;5073692;28;20596;-80
2023/01/07 02:07:35;;;;;;;78.00;24.80;;;10.30;99.90;;;;;;5074658;28;20119;-78
2023/01/07 02:10:09;;;;;;;84.30;25.10;;;10.30;99.90;;;;;;5075126;28;20095;-78
2023/01/07 02:12:41;;;;;;;80.22;24.20;;;10.30;99.90;;;;;;5074022;28;20129;-79
2023/01/07 02:15:13;;;;;;;74.97;23.08;;;10.30;99.90;;;;;;5075758;28;20068;-79
2023/01/07 02:18:26;;;;;;;72.85;24.55;;;10.30;99.90;;;;;;5073225;28;20117;-79
2023/01/07 02:21:19;;;;;;;76.43;24.70;;;10.40;99.90;;;;;;5056023;28;20056;-80
2023/01/07 02:23:54;;;;;;;77.28;24.45;;;10.30;99.90;;;;;;5074915;28;20044;-80
2023/01/07 02:26:31;;;;;;;81.05;26.02;;;10.40;99.90;;;;;;5077210;28;20052;-79
2023/01/07 02:29:14;;;;;;;76.03;23.52;;;10.40;99.90;;;;;;5090250;28;20048;-79
2023/01/07 02:31:48;;;;;;;79.65;26.63;;;10.40;99.90;;;;;;5075512;28;20448;-80
2023/01/07 02:34:28;;;;;;;78.22;24.20;;;10.30;99.90;;;;;;5078243;28;20403;-80
2023/01/07 02:37:14;;;;;;;77.57;23.50;;;10.40;99.90;;;;;;5075837;28;20095;-80
2023/01/07 02:39:58;;;;;;;76.75;25.27;;;10.40;99.90;;;;;;5075447;28;20087;-80
2023/01/07 02:42:42;;;;;;;77.07;22.80;;;10.30;99.90;;;;;;5074603;28;20044;-79
2023/01/07 02:45:44;;;;;;;70.55;23.58;;;10.40;99.90;;;;;;5077411;28;20049;-79
2023/01/07 02:48:13;;;;;;;72.15;24.33;;;10.40;99.90;;;;;;5065356;28;20059;-79
2023/01/07 02:50:39;;;;;;;72.68;23.58;;;10.30;99.90;;;;;;5075177;28;20175;-79
2023/01/07 02:53:09;;;;;;;67.43;21.70;;;10.30;99.90;;;;;;5074960;28;20088;-79
2023/01/07 02:55:43;;;;;;;64.63;23.08;;;10.30;99.90;;;;;;5074635;28;20401;-78
2023/01/07 02:58:39;;;;;;;70.35;23.73;;;10.30;99.90;;;;;;5074883;28;20045;-79
2023/01/07 03:01:08;;;;;;;;;;;10.30;99.90;;;;;;5035383;28;1127503;-79
2023/01/07 03:04:09;;;;;;;75.53;21.77;;;10.30;99.90;;;;;;5075418;28;20073;-79
2023/01/07 03:06:53;;;;;;;73.97;22.17;;;10.30;99.90;;;;;;5037825;28;20137;-80
2023/01/07 03:09:34;;;;;;;66.70;20.33;;;10.30;99.90;;;;;;5073875;28;20101;-80
2023/01/07 03:12:23;;;;;;;64.60;21.90;;;10.30;99.90;;;;;;5073908;28;20060;-80
2023/01/07 03:14:54;;;;;;;69.97;21.17;;;10.30;99.90;;;;;;5075471;28;20048;-80
2023/01/07 03:17:25;;;;;;;64.22;22.27;;;10.30;99.90;;;;;;5074088;28;20047;-78
2023/01/07 03:19:56;;;;;;;67.97;22.52;;;10.30;99.90;;;;;;5074752;28;20079;-80
2023/01/07 03:22:25;;;;;;;69.60;22.15;;;10.30;99.90;;;;;;5074698;28;20044;-80
2023/01/07 03:24:54;;;;;;;67.93;20.95;;;10.30;99.90;;;;;;5074727;28;20051;-80
2023/01/07 03:27:22;;;;;;;70.55;21.73;;;10.30;99.90;;;;;;5074865;28;20053;-80
2023/01/07 03:29:49;;;;;;;68.03;22.13;;;10.30;99.90;;;;;;5074556;28;20044;-79
2023/01/07 03:32:26;;;;;;;64.88;22.48;;;10.30;99.90;;;;;;5074177;28;20520;-80
2023/01/07 03:34:52;;;;;;;;;;;10.30;99.90;;;;;;5074960;28;20057;-80
2023/01/07 03:37:22;;;;;;;65.80;21.00;;;10.30;99.90;;;;;;5073151;28;19943;-80
2023/01/07 03:39:48;;;;;;;60.00;19.40;;;10.20;99.90;;;;;;5073708;28;20468;-79
2023/01/07 03:42:38;;;;;;;62.03;22.27;;;10.30;99.90;;;;;;5073443;28;20050;-79
2023/01/07 03:45:13;;;;;;;67.72;21.58;;;10.30;99.90;;;;;;5074164;28;20044;-78
2023/01/07 03:47:43;;;;;;;61.38;23.13;;;10.30;99.90;;;;;;5075307;28;20045;-79
2023/01/07 03:50:09;;;;;;;53.28;18.83;;;10.20;99.90;;;;;;5073936;28;20071;-80
2023/01/07 03:52:35;;;;;;;60.92;20.67;;;10.30;99.90;;;;;;5075425;28;20500;-80
2023/01/07 03:55:01;;;;;;;60.05;21.17;;;10.30;99.90;;;;;;5074463;28;20118;-80
2023/01/07 03:57:28;;;;;;;51.47;20.77;;;10.20;99.90;;;;;;5079871;28;20049;-79
2023/01/07 03:59:53;;;;;;;56.08;20.58;;;10.20;99.90;;;;;;5078757;28;20408;-80
2023/01/07 04:02:19;;;;;;;62.10;19.63;;;10.20;99.90;;;;;;5078178;28;20057;-79
2023/01/07 04:04:45;;;;;;;61.53;19.92;;;10.20;99.90;;;;;;5081121;28;20072;-79
2023/01/07 04:07:10;;;;;;;56.60;20.33;;;10.20;99.90;;;;;;5078797;28;20159;-80
2023/01/07 04:09:36;;;;;;;55.05;18.85;;;10.20;99.90;;;;;;5077938;28;20095;-80
2023/01/07 04:12:02;;;;;;;56.20;18.83;;;10.20;99.90;;;;;;5075670;28;20053;-79
2023/01/07 04:14:27;;;;;;;56.40;19.98;;;10.20;99.90;;;;;;5074892;28;20162;-80
2023/01/07 04:16:53;;;;;;;54.83;20.20;;;10.10;99.90;;;;;;5072462;28;20055;-80
2023/01/07 04:19:19;;;;;;;54.97;18.02;;;10.20;99.90;;;;;;5073887;28;20056;-80
2023/01/07 04:21:44;;;;;;;49.78;18.52;;;10.10;99.90;;;;;;5074324;28;20122;-80
2023/01/07 04:24:10;;;;;;;46.92;17.58;;;10.10;99.90;;;;;;5072584;28;20052;-79
2023/01/07 04:26:36;;;;;;;54.33;18.08;;;10.10;99.90;;;;;;5073570;28;20047;-78
2023/01/07 04:29:01;;;;;;;47.97;18.35;;;10.00;99.90;;;;;;5055657;28;20049;-79
2023/01/07 04:31:27;;;;;;;50.13;17.67;;;10.10;99.90;;;;;;5072603;28;20448;-79
2023/01/07 04:33:53;;;;;;;44.15;16.48;;;10.00;99.90;;;;;;5073371;28;20397;-79
2023/01/07 04:36:18;;;;;;;46.47;17.20;;;10.00;99.90;;;;;;5074154;28;20040;-79
2023/01/07 04:38:44;;;;;;;49.70;17.10;;;10.00;99.90;;;;;;5072176;28;20045;-78
2023/01/07 04:41:10;;;;;;;46.10;18.05;;;10.00;99.90;;;;;;5073372;28;20059;-78
2023/01/07 04:43:36;;;;;;;46.83;18.02;;;10.00;99.90;;;;;;5073398;28;20053;-79
2023/01/07 04:46:02;;;;;;;46.60;16.77;;;10.10;99.90;;;;;;5073847;28;20135;-80
2023/01/07 04:48:28;;;;;;;46.20;16.50;;;10.10;99.90;;;;;;5073347;28;20045;-79
2023/01/07 04:50:54;;;;;;;42.97;15.83;;;10.10;99.90;;;;;;5073157;28;20385;-80
2023/01/07 04:53:20;;;;;;;38.88;15.45;;;10.10;99.90;;;;;;5073286;28;20053;-79
2023/01/07 04:55:46;;;;;;;41.10;15.43;;;10.10;99.90;;;;;;5073285;28;20481;-77
2023/01/07 04:58:11;;;;;;;40.50;15.45;;;10.20;99.90;;;;;;5073109;28;20040;-79
2023/01/07 05:00:37;;;;;;;41.60;15.18;;;10.10;99.90;;;;;;5072949;28;20084;-80
2023/01/07 05:03:03;;;;;;;47.75;16.55;;;10.10;99.90;;;;;;5072423;28;20397;-79
2023/01/07 05:05:28;;;;;;;46.10;17.42;;;10.10;99.90;;;;;;5074027;28;20036;-79
2023/01/07 05:07:54;;;;;;;37.38;14.77;;;10.10;99.90;;;;;;5073055;28;20083;-79
2023/01/07 05:10:20;;;;;;;41.55;14.95;;;10.10;99.90;;;;;;5072042;28;20040;-78
2023/01/07 05:12:45;;;;;;;39.05;13.02;;;10.10;99.90;;;;;;5055235;28;20056;-79
2023/01/07 05:15:11;;;;;;;46.38;15.30;;;10.10;99.90;;;;;;5055128;28;20048;-79
2023/01/07 05:17:37;;;;;;;35.85;14.48;;;10.10;99.90;;;;;;5072649;28;20416;-80
2023/01/07 05:20:05;;;;;;;42.85;15.20;;;10.10;99.90;;;;;;5071900;28;20043;-79
2023/01/07 05:22:31;;;;;;;47.17;14.82;;;10.10;99.90;;;;;;5073034;28;20052;-79
2023/01/07 05:24:56;;;;;;;36.58;14.60;;;10.10;99.90;;;;;;5072731;28;20048;-80
2023/01/07 05:27:22;;;;;;;43.63;13.35;;;10.10;99.90;;;;;;5055364;28;20071;-80
2023/01/07 05:29:48;;;;;;;38.25;15.50;;;10.10;99.90;;;;;;5072895;28;20089;-79
2023/01/07 05:32:13;;;;;;;41.97;13.73;;;10.10;99.90;;;;;;5072950;28;20051;-79
2023/01/07 05:34:39;;;;;;;38.17;13.20;;;10.10;99.90;;;;;;5072998;28;20395;-79
2023/01/07 05:37:05;;;;;;;42.60;14.48;;;10.10;99.90;;;;;;5072859;28;20044;-80
2023/01/07 05:39:30;;;;;;;33.53;12.93;;;10.10;99.90;;;;;;5071593;28;20553;-80
2023/01/07 05:41:56;;;;;;;42.67;14.30;;;10.10;99.90;;;;;;5074580;28;20066;-80
2023/01/07 05:44:22;;;;;;;35.17;13.18;;;10.10;99.90;;;;;;5076996;28;20044;-80
2023/01/07 05:46:47;;;;;;;35.30;13.25;;;10.10;99.90;;;;;;5076690;28;20060;-79
2023/01/07 05:49:13;;;;;;;32.05;12.20;;;10.10;99.90;;;;;;5076313;28;20084;-79
2023/01/07 05:51:39;;;;;;;33.60;12.48;;;10.10;99.90;;;;;;5059410;28;20471;-80
2023/01/07 05:54:04;;;;;;;36.65;13.20;;;10.10;99.90;;;;;;5076147;28;20040;-79
2023/01/07 05:56:30;;;;;;;33.22;12.90;;;10.10;99.90;;;;;;5075764;28;20044;-79
2023/01/07 05:58:56;;;;;;;30.70;12.25;;;10.10;99.90;;;;;;5076588;28;20052;-79
2023/01/07 06:01:21;;;;;;;35.00;12.18;;;10.10;99.90;;;;;;5074601;28;20442;-80
2023/01/07 06:03:47;;;;;;;33.60;12.65;;;10.10;99.90;;;;;;5076052;28;20055;-79
2023/01/07 06:06:13;;;;;;;31.88;12.05;;;10.10;99.90;;;;;;5075254;28;20044;-79
2023/01/07 06:08:38;;;;;;;31.33;12.57;;;10.10;99.90;;;;;;5076781;28;20087;-79
2023/01/07 06:11:06;;;;;;;33.42;12.45;;;10.20;99.90;;;;;;5059046;28;20519;-79
2023/01/07 06:13:32;;;;;;;32.45;11.95;;;10.10;99.90;;;;;;5075118;28;20091;-80
2023/01/07 06:16:06;;;;;;;31.30;12.05;;;10.20;99.90;;;;;;5075896;28;20041;-79
2023/01/07 06:18:32;;;;;;;31.50;11.65;;;10.20;99.90;;;;;;5075866;28;20041;-79
2023/01/07 06:20:57;;;;;;;32.67;12.13;;;10.10;99.90;;;;;;5075715;28;20043;-78
2023/01/07 06:23:23;;;;;;;32.45;11.70;;;10.20;99.90;;;;;;5075848;28;20040;-78
2023/01/07 06:25:49;;;;;;;29.75;12.25;;;10.10;99.90;;;;;;5075997;28;20048;-78
2023/01/07 06:28:15;;;;;;;29.93;11.83;;;10.10;99.90;;;;;;5078926;28;20053;-79
2023/01/07 06:30:44;;;;;;;35.15;11.57;;;10.10;99.90;;;;;;5080084;28;20055;-79
2023/01/07 06:33:10;;;;;;;35.42;11.48;;;10.10;99.90;;;;;;5076031;28;20125;-79
2023/01/07 06:35:36;;;;;;;31.85;10.68;;;10.10;99.90;;;;;;5075649;28;20477;-79
2023/01/07 06:38:01;;;;;;;30.63;10.23;;;10.20;99.90;;;;;;5074980;28;20044;-79
2023/01/07 06:40:27;;;;;;;28.13;10.70;;;10.30;99.90;;;;;;5074250;28;20051;-79
2023/01/07 06:42:53;;;;;;;27.88;10.23;;;10.20;99.90;;;;;;5075397;28;20094;-79
2023/01/07 06:45:18;;;;;;;29.45;10.88;;;10.20;99.90;;;;;;5075235;28;20044;-79
2023/01/07 06:47:44;;;;;;;25.40;9.52;;;10.10;99.90;;;;;;5075479;28;20040;-78
2023/01/07 06:50:10;;;;;;;28.52;10.45;;;10.10;99.90;;;;;;5073603;28;20040;-79
2023/01/07 06:52:36;;;;;;;30.40;10.45;;;10.10;99.90;;;;;;5073652;28;20515;-79
2023/01/07 06:55:02;;;;;;;27.95;9.88;;;10.10;99.90;;;;;;5075900;28;20048;-77
2023/01/07 06:57:28;;;;;;;25.92;9.43;;;10.10;99.90;;;;;;5075009;28;20045;-79
2023/01/07 06:59:54;;;;;;;26.67;10.40;;;10.00;99.90;;;;;;5075381;28;20380;-78
2023/01/07 07:02:26;;;;;;;29.25;9.57;;;10.00;99.90;;;;;;5073233;28;20056;-79
2023/01/07 07:04:52;;;;;;;24.38;9.50;;;10.00;99.90;;;;;;5074884;28;20048;-77
2023/01/07 07:07:18;;;;;;;27.15;10.32;;;10.00;99.90;;;;;;5074943;28;20479;-80
2023/01/07 07:09:46;;;;;;;25.05;10.00;;;10.00;99.90;;;;;;5075380;28;20051;-80
2023/01/07 07:12:12;;;;;;;28.35;9.80;;;10.00;99.90;;;;;;5073779;28;20525;-79
2023/01/07 07:14:37;;;;;;;27.35;9.80;;;9.90;99.90;;;;;;5074728;28;20198;-79
2023/01/07 07:17:04;;;;;;;23.25;9.30;;;9.90;99.90;;;;;;5073569;28;20131;-80
2023/01/07 07:19:30;;;;;;;23.48;9.93;;;9.90;99.90;;;;;;5073648;28;20489;-79
2023/01/07 07:21:55;;;;;;;24.42;8.70;;;9.90;99.90;;;;;;5074673;28;20132;-80
2023/01/07 07:24:21;;;;;;;24.17;10.00;;;9.90;99.90;;;;;;5074767;28;20083;-79
2023/01/07 07:26:47;;;;;;;27.20;8.70;;;9.80;99.90;;;;;;5074175;28;20123;-80
2023/01/07 07:29:13;;;;;;;22.83;8.88;;;9.90;99.90;;;;;;5074344;28;20045;-80
2023/01/07 07:31:38;;;;;;;25.02;9.35;;;9.80;99.90;;;;;;5073172;28;20131;-78
2023/01/07 07:34:04;;;;;;;20.98;8.55;;;9.80;99.90;;;;;;5074894;28;20079;-79
2023/01/07 07:36:30;;;;;;;23.52;8.75;;;9.80;99.90;;;;;;5074977;28;20129;-79
2023/01/07 07:38:56;;;;;;;27.38;9.23;;;9.80;99.90;;;;;;5074007;28;20420;-79
2023/01/07 07:41:22;;;;;;;26.63;10.38;;;9.80;99.90;;;;;;5074023;28;20080;-80
2023/01/07 07:43:48;;;;;;;25.38;8.55;;;9.70;99.90;;;;;;5074054;28;20401;-80
2023/01/07 07:46:14;;;;;;;21.05;7.80;;;9.70;99.90;;;;;;5073074;28;20041;-79
2023/01/07 07:48:40;;;;;;;25.15;9.18;;;9.70;99.90;;;;;;5074148;28;20052;-79
2023/01/07 07:51:05;;;;;;;24.08;8.38;;;9.60;99.90;;;;;;5074556;28;20170;-79
2023/01/07 07:53:31;;;;;;;21.52;9.05;;;9.50;99.90;;;;;;5074065;28;20052;-79
2023/01/07 07:55:57;;;;;;;24.77;10.13;;;9.60;99.90;;;;;;5073900;28;20455;-80
2023/01/07 07:58:22;;;;;;;24.60;8.70;;;9.50;99.90;;;;;;5072760;28;20056;-79
2023/01/07 08:00:48;;;;;;;30.30;10.27;;;9.50;99.90;;;;;;5073911;28;20056;-80
2023/01/07 08:03:14;;;;;;;24.38;8.68;;;9.50;99.90;;;;;;5073459;28;20049;-79
2023/01/07 08:05:41;;;;;;;27.13;8.57;;;9.50;99.90;;;;;;5055950;28;20102;-77
2023/01/07 08:08:08;;;;;;;;;;;9.50;99.90;;;;;;5073207;28;20056;-78
2023/01/07 08:10:34;;;;;;;;;;;9.40;99.90;;;;;;5073320;28;19974;-79
2023/01/07 08:13:00;;;;;;;21.27;8.27;;;9.40;99.90;;;;;;5073911;28;20315;-79
2023/01/07 08:15:26;;;;;;;29.00;9.77;;;9.30;99.90;;;;;;5073247;28;20036;-78
2023/01/07 08:18:06;;;;;;;26.35;9.65;;;9.30;99.90;;;;;;5073617;28;20047;-80
2023/01/07 08:20:32;;;;;;;26.02;9.95;;;9.20;99.90;;;;;;5072665;28;20052;-79
2023/01/07 08:22:59;;;;;;;23.83;9.35;;;9.20;99.90;;;;;;5073338;28;20052;-80
2023/01/07 08:25:26;;;;;;;24.75;9.73;;;9.10;99.90;;;;;;5073739;28;20378;-81
2023/01/07 08:27:54;;;;;;;23.70;9.50;;;9.10;99.90;;;;;;5073671;28;20040;-81
2023/01/07 08:30:20;;;;;;;27.55;9.05;;;9.20;99.90;;;;;;5073141;28;20060;-80
2023/01/07 08:32:46;;;;;;;26.42;9.40;;;9.20;99.90;;;;;;5073300;28;20048;-80
2023/01/07 08:35:12;;;;;;;23.60;9.33;;;9.20;99.90;;;;;;5073329;28;20048;-78
2023/01/07 08:37:38;;;;;;;29.38;9.70;;;9.20;99.90;;;;;;5072321;28;20307;-80
2023/01/07 08:40:05;;;;;;;23.38;8.80;;;9.20;99.90;;;;;;5073839;28;20041;-81
2023/01/07 08:42:31;;;;;;;26.77;8.90;;;9.20;99.90;;;;;;5073737;28;20080;-81
2023/01/07 08:44:56;;;;;;;23.38;8.82;;;9.30;99.90;;;;;;5073748;28;20080;-80
2023/01/07 08:47:22;;;;;;;21.85;8.40;;;9.40;99.90;;;;;;5073174;28;20197;-79
2023/01/07 08:49:48;;;;;;;26.08;9.73;;;9.40;99.90;;;;;;5073339;28;20067;-78
2023/01/07 08:52:13;;;;;;;25.25;9.30;;;9.40;99.90;;;;;;5106252;28;20102;-80
2023/01/07 08:54:39;;;;;;;28.38;8.90;;;9.40;99.90;;;;;;5073385;28;20413;-80
2023/01/07 08:57:05;;;;;;;26.75;8.40;;;9.30;99.90;;;;;;5073476;28;20037;-81
2023/01/07 08:59:30;;;;;;;23.65;8.55;;;9.30;99.90;;;;;;5079419;28;20080;-81
2023/01/07 09:01:56;;;;;;;21.73;8.05;;;9.30;99.90;;;;;;5083725;28;20139;-81
2023/01/07 09:04:22;;;;;;;21.45;7.75;;;9.20;99.90;;;;;;5083189;28;20052;-80
2023/01/07 09:06:48;;;;;;;19.77;7.90;;;9.20;99.90;;;;;;5081672;28;20032;-80
2023/01/07 09:09:15;;;;;;;20.55;7.65;;;9.20;99.90;;;;;;5081641;28;20045;-80
2023/01/07 09:11:41;;;;;;;24.45;8.38;;;9.20;99.90;;;;;;5081138;28;20040;-81
2023/01/07 09:14:07;;;;;;;26.45;8.52;;;9.20;99.90;;;;;;5079584;28;20123;-80
2023/01/07 09:16:33;;;;;;;27.17;8.85;;;9.30;99.90;;;;;;5080868;28;20087;-80
2023/01/07 09:18:58;;;;;;;23.80;8.70;;;9.40;99.90;;;;;;5078090;28;20135;-80
2023/01/07 09:21:24;;;;;;;22.80;8.65;;;9.40;99.90;;;;;;5078379;28;20044;-79
2023/01/07 09:23:50;;;;;;;19.48;7.68;;;9.40;99.90;;;;;;5077309;28;20044;-79
2023/01/07 09:26:15;;;;;;;22.77;8.88;;;9.50;99.90;;;;;;5077626;28;20051;-80
2023/01/07 09:28:41;;;;;;;19.20;8.13;;;9.50;99.90;;;;;;5075747;28;20477;-80
2023/01/07 09:31:07;;;;;;;17.52;8.18;;;9.60;99.90;;;;;;5075688;28;20074;-80
2023/01/07 09:33:33;;;;;;;20.30;8.40;;;9.60;99.90;;;;;;5076433;28;20223;-80
2023/01/07 09:35:58;;;;;;;24.23;8.13;;;9.60;99.90;;;;;;5076994;28;20045;-80
2023/01/07 09:38:24;;;;;;;23.08;9.13;;;9.60;99.90;;;;;;5076413;28;20125;-80
2023/01/07 09:40:51;;;;;;;24.80;9.30;;;9.70;99.90;;;;;;5075620;28;20465;-81
2023/01/07 09:43:32;;;;;;;21.90;8.65;;;9.60;99.90;;;;;;5076463;28;20044;-80
2023/01/07 09:46:01;;;;;;;22.17;8.02;;;9.60;99.90;;;;;;5074961;28;20151;-80
2023/01/07 09:48:34;;;;;;;18.65;6.72;;;9.70;99.90;;;;;;5076169;28;20037;-80
2023/01/07 09:51:09;;;;;;;18.25;6.75;;;9.70;99.90;;;;;;5077050;28;20448;-81
2023/01/07 09:53:40;;;;;;;16.40;5.57;;;9.90;99.90;;;;;;5075806;28;20053;-82
2023/01/07 09:56:14;;;;;;;14.77;4.97;;;9.90;99.90;;;;;;5076332;28;20499;-80
2023/01/07 09:58:45;;;;;;;14.48;4.93;;;10.10;99.90;;;;;;5076110;28;20563;-82
2023/01/07 10:01:17;;;;;;;11.48;5.05;;;10.20;99.90;;;;;;5074893;28;20052;-80
2023/01/07 10:04:05;;;;;;;12.63;4.57;;;10.30;99.90;;;;;;5074918;28;20055;-80
2023/01/07 10:06:52;;;;;;;16.35;5.00;;;10.40;99.90;;;;;;5075941;28;20052;-81
2023/01/07 10:09:23;;;;;;;12.00;4.97;;;10.50;99.90;;;;;;5076415;28;20139;-81
2023/01/07 10:12:25;;;;;;;13.27;4.25;;;10.50;99.90;;;;;;5075839;28;20052;-80
2023/01/07 10:15:06;;;;;;;12.95;4.45;;;10.50;99.90;;;;;;5076682;28;20045;-80
2023/01/07 10:17:42;;;;;;;13.85;5.10;;;10.60;99.90;;;;;;5076350;28;20044;-80
2023/01/07 10:20:26;;;;;;;13.52;4.68;;;10.50;99.90;;;;;;5077285;28;20124;-80
2023/01/07 10:22:58;;;;;;;12.07;4.43;;;10.60;99.90;;;;;;5076447;28;20055;-79
2023/01/07 10:25:32;;;;;;;12.60;4.45;;;10.60;99.90;;;;;;5075385;28;20481;-80
2023/01/07 10:28:06;;;;;;;14.23;4.63;;;10.60;99.90;;;;;;5076421;28;20043;-80
2023/01/07 10:30:39;;;;;;;11.23;3.90;;;10.60;99.90;;;;;;5075363;28;20092;-80
2023/01/07 10:33:28;;;;;;;12.35;4.43;;;10.70;99.90;;;;;;5075462;28;20057;-80
2023/01/07 10:36:16;;;;;;;9.27;3.95;;;10.70;99.90;;;;;;5074819;28;20041;-82
2023/01/07 10:38:50;;;;;;;15.23;4.55;;;10.70;99.90;;;;;;5075669;28;20408;-81
2023/01/07 10:41:26;;;;;;;14.48;4.18;;;10.80;99.90;;;;;;5075540;28;20060;-79
2023/01/07 10:44:02;;;;;;;10.15;4.35;;;10.80;99.90;;;;;;5076145;28;20431;-79
2023/01/07 10:46:34;;;;;;;9.80;4.25;;;10.90;99.90;;;;;;5075307;28;20095;-80
2023/01/07 10:49:07;;;;;;;9.55;3.38;;;10.80;99.90;;;;;;5075850;28;20140;-81
2023/01/07 10:52:02;;;;;;;14.27;4.70;;;10.80;99.90;;;;;;5075039;28;20045;-80
2023/01/07 10:54:33;;;;;;;14.15;4.32;;;10.90;99.90;;;;;;5075680;28;20450;-80
2023/01/07 10:57:21;;;;;;;9.70;3.90;;;10.90;99.90;;;;;;5075158;28;20119;-79
2023/01/07 10:59:50;;;;;;;12.70;4.05;;;10.90;99.90;;;;;;5075307;28;20048;-79
2023/01/07 11:02:19;;;;;;;10.20;3.70;;;10.90;99.90;;;;;;5073335;28;20049;-81
2023/01/07 11:04:45;;;;;;;12.57;3.42;;;10.90;99.90;;;;;;5074467;28;20465;-80
2023/01/07 11:07:27;;;;;;;11.23;3.53;;;10.90;99.90;;;;;;5074204;28;20048;-81
2023/01/07 11:09:56;;;;;;;9.88;3.30;;;10.90;99.90;;;;;;5073969;28;20113;-80
2023/01/07 11:12:41;;;;;;;16.80;5.80;;;10.90;99.90;;;;;;5073720;28;20098;-79
2023/01/07 11:15:15;;;;;;;9.35;3.60;;;10.90;99.90;;;;;;5075434;28;20136;-84
2023/01/07 11:18:03;;;;;;;13.40;4.00;;;10.90;99.90;;;;;;5073510;28;20141;-76
2023/01/07 11:20:48;;;;;;;10.85;3.47;;;10.90;99.90;;;;;;5074283;28;20049;-79
2023/01/07 11:23:34;;;;;;;10.85;3.38;;;10.90;99.90;;;;;;5074405;28;20052;-79
2023/01/07 11:26:24;;;;;;;8.98;3.10;;;11.00;99.90;;;;;;5075074;28;20044;-77
2023/01/07 11:29:12;;;;;;;10.15;3.33;;;11.00;99.90;;;;;;5074321;28;20048;-80
2023/01/07 11:31:56;;;;;;;9.45;3.10;;;11.00;99.90;;;;;;5073469;28;20109;-78
2023/01/07 11:34:55;;;;;;;11.27;3.70;;;11.00;99.90;;;;;;5074347;28;20051;-79
2023/01/07 11:37:45;;;;;;;17.17;5.03;;;11.00;99.90;;;;;;5072796;28;20056;-80
2023/01/07 11:40:13;;;;;;;12.07;3.53;;;11.10;99.90;;;;;;5073354;28;20044;-81
2023/01/07 11:42:55;;;;;;;6.95;2.60;;;11.10;99.90;;;;;;5073373;28;20055;-78
2023/01/07 11:45:27;;;;;;;9.23;3.33;;;11.10;99.90;;;;;;5074211;28;20067;-80
2023/01/07 11:48:01;;;;;;;8.35;2.90;;;11.20;99.90;;;;;;5074004;28;20480;-80
2023/01/07 11:50:38;;;;;;;5.65;2.38;;;11.20;99.90;;;;;;5074644;28;20051;-79
2023/01/07 11:53:12;;;;;;;13.30;3.25;;;11.20;99.90;;;;;;5073976;28;20057;-79
2023/01/07 11:55:39;;;;;;;9.00;2.92;;;11.20;99.90;;;;;;5074271;28;20044;-81
2023/01/07 11:58:16;;;;;;;9.23;3.13;;;11.20;99.90;;;;;;5073853;28;20389;-78
2023/01/07 12:00:42;;;;;;;9.80;3.30;;;11.20;99.90;;;;;;5073235;28;20083;-78
2023/01/07 12:03:12;;;;;;;9.95;3.30;;;11.20;99.90;;;;;;5072598;28;20052;-78
2023/01/07 12:05:40;;;;;;;8.77;3.25;;;11.20;99.90;;;;;;5073367;28;20064;-80
2023/01/07 12:08:17;;;;;;;8.18;3.03;;;11.20;99.90;;;;;;5072617;28;20503;-78
2023/01/07 12:10:43;;;;;;;14.65;3.00;;;11.20;99.90;;;;;;5091503;28;20372;-78
2023/01/07 12:13:22;;;;;;;10.27;3.65;;;11.20;99.90;;;;;;5073612;28;20124;-78
2023/01/07 12:16:06;;;;;;;7.88;3.08;;;11.10;99.90;;;;;;5073550;28;20049;-79
2023/01/07 12:19:05;;;;;;;7.63;2.83;;;11.00;99.90;;;;;;5074090;28;20052;-77
2023/01/07 12:21:36;;;;;;;13.52;4.70;;;11.00;99.90;;;;;;5074153;28;20044;-81
2023/01/07 12:24:11;;;;;;;8.68;2.72;;;11.00;99.90;;;;;;5073096;28;20501;-80
2023/01/07 12:26:59;;;;;;;9.27;2.50;;;11.00;99.90;;;;;;5076464;28;20041;-79
2023/01/07 12:29:56;;;;;;;10.95;3.15;;;11.00;99.90;;;;;;5075155;28;20044;-78
2023/01/07 12:32:21;;;;;;;;;;;11.00;99.90;;;;;;5075621;28;20049;-79
2023/01/07 12:35:01;;;;;;;10.70;2.80;;;11.00;99.90;;;;;;5072850;28;20400;-80
2023/01/07 12:37:33;;;;;;;7.32;2.25;;;11.00;99.90;;;;;;5074098;28;20098;-80
2023/01/07 12:40:18;;;;;;;7.43;2.50;;;11.00;99.90;;;;;;5073498;28;20056;-81
2023/01/07 12:42:55;;;;;;;7.95;2.60;;;11.00;99.90;;;;;;5072925;28;20538;-79
2023/01/07 12:45:55;;;;;;;8.70;2.20;;;11.10;99.90;;;;;;5073698;28;20052;-78
2023/01/07 12:48:40;;;;;;;9.70;2.45;;;11.20;99.90;;;;;;5063934;28;20465;-79
2023/01/07 12:51:21;;;;;;;10.23;3.25;;;11.20;99.90;;;;;;5077080;28;20049;-79
2023/01/07 12:54:21;;;;;;;10.35;2.78;;;11.20;99.90;;;;;;5076989;28;20087;-77